createdAt,value
2017-02-01T00:00:33.287Z,2.54
2017-02-01T00:05:29.806Z,2.61
2017-02-01T00:10:26.051Z,2.43
2017-02-01T00:15:22.445Z,2.47
2017-02-01T00:20:18.785Z,2.46
2017-02-01T00:25:17.075Z,2.44
2017-02-01T00:30:13.080Z,2.39
2017-02-01T00:35:09.648Z,2.44
2017-02-01T00:40:05.923Z,2.47
2017-02-01T00:45:02.708Z,2.42
2017-02-01T00:49:58.941Z,2.28
2017-02-01T00:54:55.363Z,2.31
2017-02-01T00:59:51.545Z,2.43
2017-02-01T01:04:48.137Z,2.42
2017-02-01T01:09:44.678Z,2.31
2017-02-01T01:14:40.617Z,2.28
2017-02-01T01:19:36.958Z,2.24
2017-02-01T01:24:33.281Z,2.29
2017-02-01T01:29:29.776Z,2.18
2017-02-01T01:34:26.176Z,2.25
2017-02-01T01:39:22.793Z,2.32
2017-02-01T01:44:18.896Z,2.20
2017-02-01T01:49:15.312Z,2.20
2017-02-01T01:54:11.471Z,2.13
2017-02-01T01:59:07.831Z,2.18
2017-02-01T02:04:03.982Z,2.18
2017-02-01T02:09:00.269Z,2.20
2017-02-01T02:13:56.887Z,2.26
2017-02-01T02:18:53.270Z,2.17
2017-02-01T02:23:50.281Z,2.17
2017-02-01T02:28:46.707Z,2.10
2017-02-01T02:33:43.168Z,2.20
2017-02-01T02:38:40.366Z,2.18
2017-02-01T02:43:36.607Z,2.31
2017-02-01T02:48:32.906Z,2.29
2017-02-01T02:53:29.182Z,2.32
2017-02-01T02:58:25.630Z,2.31
2017-02-01T03:03:22.284Z,2.24
2017-02-01T03:08:18.604Z,2.43
2017-02-01T03:13:15.321Z,2.42
2017-02-01T03:18:11.605Z,2.39
2017-02-01T03:23:09.549Z,2.43
2017-02-01T03:28:05.351Z,2.35
2017-02-01T03:33:02.387Z,2.35
2017-02-01T03:37:58.783Z,2.32
2017-02-01T03:42:55.189Z,2.32
2017-02-01T03:47:51.607Z,2.32
2017-02-01T03:52:47.600Z,2.26
2017-02-01T03:57:44.340Z,2.39
2017-02-01T04:02:40.499Z,2.44
2017-02-01T04:07:37.508Z,2.62
2017-02-01T04:12:33.889Z,2.54
2017-02-01T04:17:30.268Z,2.60
2017-02-01T04:22:26.908Z,2.57
2017-02-01T04:27:23.282Z,2.60
2017-02-01T04:32:19.854Z,2.51
2017-02-01T04:37:16.501Z,2.51
2017-02-01T04:42:13.018Z,2.65
2017-02-01T04:47:09.495Z,2.67
2017-02-01T04:52:05.819Z,2.68
2017-02-01T04:57:02.016Z,2.75
2017-02-01T05:01:58.588Z,2.82
2017-02-01T05:06:54.925Z,2.64
2017-02-01T05:11:51.359Z,2.60
2017-02-01T05:16:47.601Z,2.72
2017-02-01T05:21:44.751Z,2.71
2017-02-01T05:26:41.486Z,2.72
2017-02-01T05:31:37.742Z,2.83
2017-02-01T05:36:34.295Z,2.80
2017-02-01T05:41:30.983Z,2.71
2017-02-01T05:46:27.296Z,2.68
2017-02-01T05:51:23.679Z,2.77
2017-02-01T05:56:21.171Z,2.77
2017-02-01T06:01:17.280Z,2.82
2017-02-01T06:06:13.898Z,2.83
2017-02-01T06:11:10.178Z,2.86
2017-02-01T06:16:07.079Z,2.86
2017-02-01T06:21:03.455Z,2.85
2017-02-01T06:25:59.878Z,2.83
2017-02-01T06:30:56.232Z,2.85
2017-02-01T06:35:52.713Z,2.85
2017-02-01T06:40:49.394Z,2.86
2017-02-01T06:45:45.815Z,2.95
2017-02-01T06:50:42.057Z,2.87
2017-02-01T06:55:41.078Z,2.85
2017-02-01T07:00:36.863Z,2.97
2017-02-01T07:05:33.469Z,2.93
2017-02-01T07:10:30.810Z,2.87
2017-02-01T07:15:27.975Z,2.89
2017-02-01T07:20:24.433Z,3.01
2017-02-01T07:25:20.688Z,2.97
2017-02-01T07:30:17.318Z,2.98
2017-02-01T07:35:13.747Z,2.90
2017-02-01T07:40:10.215Z,3.04
2017-02-01T07:45:07.404Z,3.04
2017-02-01T07:50:04.359Z,3.07
2017-02-01T07:55:00.820Z,3.07
2017-02-01T07:59:57.340Z,3.19
2017-02-01T08:04:53.700Z,3.22
2017-02-01T08:09:50.181Z,3.21
2017-02-01T08:14:46.508Z,3.23
2017-02-01T08:19:43.737Z,3.14
2017-02-01T08:24:40.184Z,3.22
2017-02-01T08:29:36.872Z,3.25
2017-02-01T08:34:33.368Z,3.04
2017-02-01T08:39:29.874Z,3.23
2017-02-01T08:44:27.346Z,3.19
2017-02-01T08:49:23.748Z,3.01
2017-02-01T08:54:20.689Z,3.23
2017-02-01T08:59:17.067Z,3.23
2017-02-01T09:04:14.460Z,3.05
2017-02-01T09:09:10.709Z,3.19
2017-02-01T09:14:07.316Z,3.34
2017-02-01T09:19:07.861Z,3.44
2017-02-01T09:24:03.977Z,3.44
2017-02-01T09:29:00.929Z,3.48
2017-02-01T09:33:57.434Z,3.51
2017-02-01T09:38:54.538Z,3.59
2017-02-01T09:43:51.328Z,3.55
2017-02-01T09:48:48.966Z,3.66
2017-02-01T09:53:45.173Z,3.80
2017-02-01T09:58:41.736Z,3.76
2017-02-01T10:03:38.233Z,3.81
2017-02-01T10:08:34.649Z,3.68
2017-02-01T10:13:31.196Z,4.06
2017-02-01T10:18:27.724Z,3.94
2017-02-01T10:23:24.558Z,4.12
2017-02-01T10:28:20.866Z,4.14
2017-02-01T10:33:17.547Z,4.26
2017-02-01T10:38:13.974Z,4.28
2017-02-01T10:43:10.376Z,4.34
2017-02-01T10:48:06.882Z,4.24
2017-02-01T10:53:03.440Z,4.44
2017-02-01T10:58:00.108Z,4.40
2017-02-01T11:02:56.620Z,4.48
2017-02-01T11:07:53.299Z,4.42
2017-02-01T11:12:50.138Z,4.53
2017-02-01T11:17:46.412Z,4.70
2017-02-01T11:22:43.034Z,4.75
2017-02-01T11:27:40.123Z,5.10
2017-02-01T11:32:36.625Z,5.08
2017-02-01T11:37:33.251Z,5.35
2017-02-01T11:42:29.610Z,5.75
2017-02-01T11:47:25.602Z,5.23
2017-02-01T11:52:21.809Z,5.10
2017-02-01T11:57:18.835Z,5.35
2017-02-01T12:02:15.477Z,5.30
2017-02-01T12:07:12.562Z,6.46
2017-02-01T12:12:09.065Z,6.72
2017-02-01T12:17:05.701Z,6.01
2017-02-01T12:22:01.768Z,6.02
2017-02-01T12:26:58.292Z,5.84
2017-02-01T12:31:55.769Z,5.68
2017-02-01T12:36:51.729Z,5.57
2017-02-01T12:41:47.951Z,5.56
2017-02-01T12:46:44.383Z,5.59
2017-02-01T12:51:40.786Z,5.54
2017-02-01T12:56:37.374Z,5.68
2017-02-01T13:01:34.497Z,5.66
2017-02-01T13:06:30.846Z,5.56
2017-02-01T13:11:27.736Z,5.53
2017-02-01T13:16:23.649Z,5.68
2017-02-01T13:21:20.390Z,5.72
2017-02-01T13:26:16.986Z,5.94
2017-02-01T13:31:13.469Z,5.93
2017-02-01T13:36:10.147Z,5.91
2017-02-01T13:41:06.530Z,5.90
2017-02-01T13:46:02.776Z,5.94
2017-02-01T13:50:59.203Z,5.98
2017-02-01T13:55:55.449Z,5.86
2017-02-01T14:00:51.801Z,5.98
2017-02-01T14:05:48.877Z,6.11
2017-02-01T14:10:45.371Z,6.26
2017-02-01T14:15:42.872Z,6.27
2017-02-01T14:20:39.096Z,6.19
2017-02-01T14:25:36.068Z,6.12
2017-02-01T14:30:32.394Z,5.98
2017-02-01T14:35:29.625Z,5.86
2017-02-01T14:40:25.946Z,5.80
2017-02-01T14:45:22.427Z,5.75
2017-02-01T14:50:19.944Z,5.65
2017-02-01T14:55:16.293Z,5.53
2017-02-01T15:00:13.573Z,5.46
2017-02-01T15:05:10.210Z,5.53
2017-02-01T15:10:06.560Z,5.39
2017-02-01T15:15:02.910Z,5.41
2017-02-01T15:19:59.293Z,5.35
2017-02-01T15:24:55.645Z,5.43
2017-02-01T15:29:52.764Z,5.39
2017-02-01T15:34:49.188Z,5.30
2017-02-01T15:39:46.666Z,5.32
2017-02-01T15:44:43.257Z,5.29
2017-02-01T15:49:39.960Z,5.12
2017-02-01T15:54:36.326Z,5.05
2017-02-01T15:59:32.835Z,4.92
2017-02-01T16:04:29.893Z,4.93
2017-02-01T16:09:26.228Z,4.84
2017-02-01T16:14:22.651Z,4.71
2017-02-01T16:19:19.121Z,4.70
2017-02-01T16:24:16.234Z,4.49
2017-02-01T16:29:13.101Z,4.52
2017-02-01T16:34:10.605Z,4.44
2017-02-01T16:39:06.658Z,4.62
2017-02-01T16:44:02.948Z,4.62
2017-02-01T16:48:59.352Z,4.56
2017-02-01T16:53:56.656Z,4.49
2017-02-01T16:58:53.296Z,4.22
2017-02-01T17:03:50.118Z,4.19
2017-02-01T17:08:46.522Z,4.12
2017-02-01T17:13:43.079Z,4.22
2017-02-01T17:18:39.457Z,4.23
2017-02-01T17:23:35.932Z,4.31
2017-02-01T17:28:32.397Z,4.53
2017-02-01T17:33:28.995Z,4.41
2017-02-01T17:38:25.435Z,4.44
2017-02-01T17:43:21.533Z,4.30
2017-02-01T17:48:17.744Z,4.20
2017-02-01T17:53:13.901Z,4.19
2017-02-01T17:58:10.200Z,3.99
2017-02-01T18:03:06.718Z,3.99
2017-02-01T18:08:02.756Z,3.92
2017-02-01T18:12:59.002Z,4.16
2017-02-01T18:17:56.134Z,4.26
2017-02-01T18:22:52.514Z,4.30
2017-02-01T18:27:49.167Z,4.24
2017-02-01T18:32:45.812Z,4.32
2017-02-01T18:37:42.443Z,4.30
2017-02-01T18:42:38.661Z,4.24
2017-02-01T18:47:34.756Z,4.31
2017-02-01T18:52:31.275Z,4.14
2017-02-01T18:57:32.213Z,4.06
2017-02-01T19:02:27.997Z,4.01
2017-02-01T19:07:24.488Z,3.77
2017-02-01T19:12:21.991Z,3.47
2017-02-01T19:17:18.753Z,3.23
2017-02-01T19:22:15.946Z,3.11
2017-02-01T19:27:12.831Z,3.21
2017-02-01T19:32:09.325Z,3.25
2017-02-01T19:37:05.705Z,3.08
2017-02-01T19:42:02.802Z,3.05
2017-02-01T19:46:59.262Z,3.07
2017-02-01T19:51:55.994Z,2.93
2017-02-01T19:56:52.320Z,2.97
2017-02-01T20:01:49.040Z,2.97
2017-02-01T20:06:44.900Z,3.11
2017-02-01T20:11:41.703Z,3.10
2017-02-01T20:16:38.116Z,3.14
2017-02-01T20:21:35.377Z,3.10
2017-02-01T20:26:33.723Z,3.01
2017-02-01T20:31:29.499Z,2.92
2017-02-01T20:36:25.969Z,3.10
2017-02-01T20:41:23.459Z,3.18
2017-02-01T20:46:20.381Z,3.22
2017-02-01T20:51:16.836Z,3.23
2017-02-01T20:56:14.440Z,3.22
2017-02-01T21:01:10.740Z,3.22
2017-02-01T21:06:07.540Z,3.28
2017-02-01T21:11:03.905Z,3.23
2017-02-01T21:16:01.662Z,3.40
2017-02-01T21:20:58.163Z,3.37
2017-02-01T21:25:54.500Z,3.29
2017-02-01T21:30:51.044Z,3.21
2017-02-01T21:35:47.273Z,3.19
2017-02-01T21:40:43.587Z,3.25
2017-02-01T21:45:40.788Z,3.34
2017-02-01T21:50:37.187Z,3.32
2017-02-01T21:55:33.764Z,3.48
2017-02-01T22:00:30.365Z,3.53
2017-02-01T22:05:26.565Z,3.50
2017-02-01T22:10:23.466Z,3.53
2017-02-01T22:15:19.462Z,3.66
2017-02-01T22:20:16.443Z,3.66
2017-02-01T22:25:12.926Z,3.65
2017-02-01T22:30:10.021Z,3.73
2017-02-01T22:35:06.831Z,3.84
2017-02-01T22:40:03.262Z,3.88
2017-02-01T22:44:59.921Z,3.98
2017-02-01T22:49:56.601Z,3.96
2017-02-01T22:54:53.338Z,4.05
2017-02-01T22:59:49.809Z,3.95
2017-02-01T23:04:46.240Z,4.01
2017-02-01T23:09:42.585Z,4.02
2017-02-01T23:14:39.420Z,4.05
2017-02-01T23:19:35.800Z,4.16
2017-02-01T23:24:31.882Z,4.20
2017-02-01T23:29:28.490Z,4.16
2017-02-01T23:34:24.941Z,4.20
2017-02-01T23:39:21.456Z,4.24
2017-02-01T23:44:18.121Z,4.35
2017-02-01T23:49:14.852Z,4.40
2017-02-01T23:54:11.438Z,4.48
2017-02-01T23:59:07.652Z,4.40
